Portada
METAR-TAF:

METAR-TAF

Aeropuertos :

Aeropuerto de Perpiñán-Rivesaltes

Perpiñán, Francia

latitud: 42-44N, longitud: 002-52E, altitud: 43 m

Observación

El informe se hizo hace 42 minutos, a las 19:00 UTC
Viento 5 kt del oeste-suroeste
Temperatura 10°C
Humedad 87%
Presión 1017 hPa
Visibilidad 10 km o más
sin nubes por debajo de 1500 m y sin presencia de cumulonimbus.

METAR: LFMP 291900Z AUTO 24005KT CAVOK 10/08 Q1017 NOSIG

Hora: 20:42 (19:42 UTC)

Pronóstico

El informe se hizo hace 5 horas y 42 minutos, a las 14:00 UTC
Pronóstico válido del 29 a las 15 UTC al 30 a las 15 UTC
Viento 4 kt con dirección variable
Visibilidad 10 km o más
sin nubes por debajo de 1500 m y sin presencia de cumulonimbus.

TAF: LFMP 291400Z 2915/3015 VRB04KT CAVOK

Observaciones y pronósticos meteorológicos de más de 4000 aeropuertos (mensajes METAR y TAF).

Los puntos amarillos y rojos representan las estaciones disponibles.

Ponga el ratón en el punto deseado para ver el nombre de la estación.

Haga clic para ver las observaciones y los pronósticos meteorológicos.

Para cambiar el mapa : haga clic en los botones verdes con una cruz de color negro para hacer un zoom, en el botón verde con un guión para alejar o en las flechas verdes para mapas adyacentes.


METAR-TAF: